Primer Ensanche, Spain
Current Conditions -  °F | °C
As of 7:30 PM on Wednesday 26 Nov 2014 (Local Time) from LEPP Reporting Station
Broken Clouds Broken Clouds  
Wind Chill: 52°   Ceiling: 5400
Heat Index: 52°   Visibility: 6mi
Dew Point: 52°   Wind: 1mph
Humidity: 100%   Direction: 280°W
Pressure: 29.83"   Gusts: NA
Location:  42.81°N, 1.65°W
Report Text: LEPP 261830Z 28001KT 9999 SCT018 BKN054 11/11 Q1010
Loading
Personal Weather Stations






























Interactive Weather Map New forecast layout! Learn more

10-Day Weather Forecast

Advertisements
Track Severe Weather on mobile